createdAt,value
2017-10-18T00:01:53.913Z,18.33
2017-10-18T00:04:22.812Z,18.43
2017-10-18T00:06:51.690Z,18.70
2017-10-18T00:09:20.611Z,17.63
2017-10-18T00:11:48.717Z,16.37
2017-10-18T00:14:16.858Z,20.57
2017-10-18T00:16:45.425Z,18.27
2017-10-18T00:19:14.329Z,17.93
2017-10-18T00:21:42.846Z,18.63
2017-10-18T00:24:10.988Z,21.77
2017-10-18T00:26:39.111Z,17.00
2017-10-18T00:29:07.261Z,16.50
2017-10-18T00:31:35.380Z,17.67
2017-10-18T00:34:04.343Z,17.93
2017-10-18T00:36:32.462Z,17.63
2017-10-18T00:39:02.190Z,18.10
2017-10-18T00:41:30.314Z,17.20
2017-10-18T00:43:58.438Z,18.47
2017-10-18T00:46:26.574Z,21.67
2017-10-18T00:48:55.471Z,19.20
2017-10-18T00:51:24.401Z,17.10
2017-10-18T00:53:52.527Z,19.30
2017-10-18T00:56:21.437Z,18.87
2017-10-18T00:58:49.553Z,18.60
2017-10-18T01:01:18.745Z,18.50
2017-10-18T01:03:46.867Z,17.53
2017-10-18T01:06:15.773Z,17.93
2017-10-18T01:08:44.574Z,17.83
2017-10-18T01:11:12.709Z,18.00
2017-10-18T01:13:41.980Z,16.90
2017-10-18T01:16:10.177Z,21.90
2017-10-18T01:18:38.302Z,21.47
2017-10-18T01:21:06.862Z,24.03
2017-10-18T01:23:34.985Z,21.40
2017-10-18T01:26:03.125Z,25.50
2017-10-18T01:28:32.578Z,20.70
2017-10-18T01:31:01.799Z,17.93
2017-10-18T01:33:30.688Z,20.73
2017-10-18T01:36:00.125Z,17.10
2017-10-18T01:38:28.250Z,21.03
2017-10-18T01:40:56.384Z,19.47
2017-10-18T01:43:24.553Z,17.67
2017-10-18T01:45:54.955Z,17.83
2017-10-18T01:48:23.088Z,17.87
2017-10-18T01:50:51.240Z,18.77
2017-10-18T01:53:19.359Z,18.40
2017-10-18T01:55:48.248Z,19.97
2017-10-18T01:58:17.170Z,18.37
2017-10-18T02:00:45.308Z,17.90
2017-10-18T02:03:13.891Z,17.33
2017-10-18T02:05:42.797Z,17.07
2017-10-18T02:08:13.096Z,17.80
2017-10-18T02:10:41.213Z,17.77
2017-10-18T02:13:09.345Z,17.40
2017-10-18T02:15:37.466Z,20.07
2017-10-18T02:18:05.626Z,18.00
2017-10-18T02:20:35.026Z,19.20
2017-10-18T02:23:03.163Z,17.53
2017-10-18T02:25:31.284Z,21.40
2017-10-18T02:27:59.432Z,18.73
2017-10-18T02:30:28.341Z,19.50
2017-10-18T02:32:56.485Z,20.47
2017-10-18T02:35:26.023Z,20.20
2017-10-18T02:37:54.163Z,21.67
2017-10-18T02:40:22.343Z,20.07
2017-10-18T02:42:52.070Z,16.17
2017-10-18T02:45:20.201Z,18.40
2017-10-18T02:47:48.331Z,19.50
2017-10-18T02:50:18.931Z,20.63
2017-10-18T02:52:47.860Z,21.13
2017-10-18T02:55:15.974Z,19.10
2017-10-18T02:57:46.117Z,21.40
2017-10-18T03:00:15.019Z,20.80
2017-10-18T03:02:43.693Z,20.83
2017-10-18T03:05:12.607Z,19.80
2017-10-18T03:07:40.714Z,18.87
2017-10-18T03:10:09.297Z,18.80
2017-10-18T03:12:39.357Z,18.53
2017-10-18T03:15:08.266Z,20.67
2017-10-18T03:17:37.756Z,17.33
2017-10-18T03:20:06.664Z,19.30
2017-10-18T03:22:34.782Z,19.47
2017-10-18T03:25:02.908Z,20.57
2017-10-18T03:27:32.014Z,21.07
2017-10-18T03:30:00.162Z,19.83
2017-10-18T03:32:29.053Z,18.97
2017-10-18T03:34:57.957Z,20.30
2017-10-18T03:37:26.085Z,20.73
2017-10-18T03:39:54.217Z,20.20
2017-10-18T03:42:23.398Z,20.20
2017-10-18T03:44:51.554Z,22.10
2017-10-18T03:47:20.443Z,19.23
2017-10-18T03:49:48.548Z,19.40
2017-10-18T03:52:16.682Z,19.00
2017-10-18T03:54:44.788Z,19.37
2017-10-18T03:57:12.929Z,18.90
2017-10-18T03:59:41.045Z,18.63
2017-10-18T04:02:09.193Z,19.90
2017-10-18T04:04:37.904Z,18.70
2017-10-18T04:07:06.045Z,18.70
2017-10-18T04:09:34.931Z,21.33
2017-10-18T04:12:03.090Z,17.37
2017-10-18T04:14:31.214Z,18.37
2017-10-18T04:16:59.349Z,17.33
2017-10-18T04:19:27.463Z,18.43
2017-10-18T04:21:55.602Z,17.17
2017-10-18T04:24:24.480Z,17.97
2017-10-18T04:26:52.612Z,17.60
2017-10-18T04:29:22.193Z,18.23
2017-10-18T04:31:51.168Z,19.30
2017-10-18T04:34:20.040Z,19.07
2017-10-18T04:36:48.657Z,16.93
2017-10-18T04:39:16.783Z,20.00
2017-10-18T04:41:46.077Z,18.67
2017-10-18T04:44:14.190Z,18.60
2017-10-18T04:46:43.462Z,19.30
2017-10-18T04:49:11.601Z,20.37
2017-10-18T04:51:39.744Z,18.70
2017-10-18T04:54:12.809Z,20.50
2017-10-18T04:56:40.954Z,20.47
2017-10-18T04:59:09.082Z,19.70
2017-10-18T05:01:38.454Z,20.50
2017-10-18T05:04:07.492Z,18.03
2017-10-18T05:06:35.596Z,20.30
2017-10-18T05:09:03.742Z,18.90
2017-10-18T05:11:32.708Z,19.03
2017-10-18T05:14:01.605Z,20.13
2017-10-18T05:16:30.487Z,20.13
2017-10-18T05:18:59.397Z,18.90
2017-10-18T05:21:27.508Z,18.70
2017-10-18T05:23:55.643Z,19.50
2017-10-18T05:26:24.611Z,20.33
2017-10-18T05:28:52.757Z,19.70
2017-10-18T05:31:20.874Z,17.80
2017-10-18T05:33:49.784Z,18.67
2017-10-18T05:36:17.915Z,17.73
2017-10-18T05:38:46.250Z,16.63
2017-10-18T05:41:14.365Z,16.27
2017-10-18T05:43:42.498Z,15.40
2017-10-18T05:46:10.615Z,18.27
2017-10-18T05:48:38.748Z,20.50
2017-10-18T05:51:06.876Z,20.60
2017-10-18T05:53:35.905Z,19.20
2017-10-18T05:56:04.037Z,16.97
2017-10-18T05:58:32.168Z,18.23
2017-10-18T06:01:00.301Z,17.60
2017-10-18T06:03:29.216Z,17.20
2017-10-18T06:05:59.021Z,16.60
2017-10-18T06:08:27.166Z,17.27
2017-10-18T06:10:55.290Z,17.00
2017-10-18T06:13:23.424Z,16.20
2017-10-18T06:15:52.350Z,17.90
2017-10-18T06:18:20.464Z,17.57
2017-10-18T06:20:48.598Z,18.17
2017-10-18T06:23:18.583Z,18.70
2017-10-18T06:25:47.479Z,17.93
2017-10-18T06:28:15.610Z,17.20
2017-10-18T06:30:43.751Z,19.23
2017-10-18T06:33:12.301Z,17.50
2017-10-18T06:35:41.213Z,16.70
2017-10-18T06:38:09.329Z,16.73
2017-10-18T06:40:37.490Z,18.03
2017-10-18T06:43:05.610Z,17.33
2017-10-18T06:45:34.508Z,17.73
2017-10-18T06:48:02.629Z,18.73
2017-10-18T06:50:30.772Z,19.10
2017-10-18T06:52:58.905Z,17.20
2017-10-18T06:55:27.818Z,18.30
2017-10-18T06:57:55.950Z,20.13
2017-10-18T07:00:24.080Z,19.80
2017-10-18T07:02:52.188Z,18.17
2017-10-18T07:05:20.348Z,18.57
2017-10-18T07:07:48.469Z,17.20
2017-10-18T07:10:17.402Z,18.53
2017-10-18T07:12:45.530Z,16.37
2017-10-18T07:15:14.422Z,18.07
2017-10-18T07:17:43.317Z,19.10
2017-10-18T07:20:13.383Z,17.00
2017-10-18T07:22:42.032Z,21.43
2017-10-18T07:25:10.161Z,18.13
2017-10-18T07:27:38.301Z,19.70
2017-10-18T07:30:06.435Z,16.10
2017-10-18T07:32:35.841Z,17.27
2017-10-18T07:35:04.720Z,17.87
2017-10-18T07:37:32.880Z,17.57
2017-10-18T07:40:01.024Z,17.07
2017-10-18T07:42:30.992Z,16.80
2017-10-18T07:44:59.890Z,17.60
2017-10-18T07:47:28.838Z,17.67
2017-10-18T07:49:58.029Z,17.50
2017-10-18T07:52:26.169Z,18.73
2017-10-18T07:54:54.319Z,20.53
2017-10-18T07:57:23.226Z,19.10
2017-10-18T07:59:52.109Z,18.23
2017-10-18T08:02:21.017Z,18.13
2017-10-18T08:04:49.121Z,17.03
2017-10-18T08:07:17.260Z,19.20
2017-10-18T08:09:45.368Z,17.47
2017-10-18T08:12:13.911Z,17.80
2017-10-18T08:14:43.914Z,18.00
2017-10-18T08:17:12.816Z,16.60
2017-10-18T08:19:40.931Z,14.97
2017-10-18T08:22:09.866Z,16.07
2017-10-18T08:24:38.757Z,16.27
2017-10-18T08:27:07.697Z,14.87
2017-10-18T08:29:35.821Z,14.90
2017-10-18T08:32:04.700Z,15.53
2017-10-18T08:34:32.851Z,15.60
2017-10-18T08:37:00.980Z,14.37
2017-10-18T08:39:29.120Z,15.10
2017-10-18T08:41:57.250Z,15.53
2017-10-18T08:44:25.398Z,15.93
2017-10-18T08:46:53.503Z,16.17
2017-10-18T08:49:21.645Z,14.60
2017-10-18T08:51:49.762Z,15.90
2017-10-18T08:54:18.586Z,14.97
2017-10-18T08:56:47.482Z,15.70
2017-10-18T08:59:17.708Z,16.40
2017-10-18T09:01:46.588Z,16.47
2017-10-18T09:04:15.497Z,16.50
2017-10-18T09:06:43.640Z,18.27
2017-10-18T09:09:13.067Z,17.97
2017-10-18T09:11:41.942Z,18.33
2017-10-18T09:14:10.086Z,16.20
2017-10-18T09:16:39.758Z,16.30
2017-10-18T09:19:07.914Z,18.47
2017-10-18T09:21:36.476Z,16.37
2017-10-18T09:24:05.899Z,17.57
2017-10-18T09:26:34.784Z,18.10
2017-10-18T09:29:03.704Z,17.70
2017-10-18T09:31:31.847Z,18.17
2017-10-18T09:34:03.236Z,18.00
2017-10-18T09:36:31.376Z,17.77
2017-10-18T09:39:00.972Z,18.00
2017-10-18T09:41:31.724Z,18.60
2017-10-18T09:43:59.871Z,19.03
2017-10-18T09:46:28.784Z,19.10
2017-10-18T09:48:57.712Z,18.80
2017-10-18T09:51:25.857Z,18.60
2017-10-18T09:53:53.977Z,17.87
2017-10-18T09:56:22.105Z,18.67
2017-10-18T09:58:50.237Z,19.03
2017-10-18T10:01:18.865Z,17.80
2017-10-18T10:03:46.988Z,18.07
2017-10-18T10:06:15.157Z,18.10
2017-10-18T10:08:43.275Z,19.43
2017-10-18T10:11:11.421Z,19.07
2017-10-18T10:13:39.954Z,20.07
2017-10-18T10:16:08.524Z,19.60
2017-10-18T10:18:36.676Z,19.13
2017-10-18T10:21:05.589Z,19.47
2017-10-18T10:23:33.739Z,18.20
2017-10-18T10:26:02.654Z,17.40
2017-10-18T10:28:30.763Z,18.13
2017-10-18T10:30:58.900Z,18.23
2017-10-18T10:33:27.043Z,18.23
2017-10-18T10:35:55.983Z,18.30
2017-10-18T10:38:24.197Z,19.37
2017-10-18T10:40:52.336Z,19.87
2017-10-18T10:43:20.456Z,19.73
2017-10-18T10:45:49.864Z,19.07
2017-10-18T10:48:18.841Z,18.13
2017-10-18T10:50:47.006Z,16.53
2017-10-18T10:53:15.188Z,18.23
2017-10-18T10:55:43.323Z,18.67
2017-10-18T10:58:11.451Z,19.47
2017-10-18T11:00:41.484Z,19.33
2017-10-18T11:03:10.364Z,19.90
2017-10-18T11:05:39.267Z,18.47
2017-10-18T11:08:08.141Z,19.67
2017-10-18T11:10:37.051Z,21.40
2017-10-18T11:13:05.190Z,21.97
2017-10-18T11:15:33.308Z,20.30
2017-10-18T11:18:01.431Z,21.60
2017-10-18T11:20:31.868Z,22.47
2017-10-18T11:22:59.995Z,21.90
2017-10-18T11:25:28.119Z,21.57
2017-10-18T11:27:57.172Z,22.77
2017-10-18T11:30:25.309Z,22.67
2017-10-18T11:32:53.439Z,21.40
2017-10-18T11:35:22.052Z,22.43
2017-10-18T11:37:50.949Z,23.50
2017-10-18T11:40:19.216Z,21.57
2017-10-18T11:42:48.123Z,21.90
2017-10-18T11:45:17.014Z,21.80
2017-10-18T11:47:45.173Z,22.17
2017-10-18T11:50:14.062Z,22.63
2017-10-18T11:52:43.003Z,21.93
2017-10-18T11:55:11.123Z,21.27
2017-10-18T11:57:40.037Z,21.87
2017-10-18T12:00:08.205Z,22.13
2017-10-18T12:02:39.016Z,21.07
2017-10-18T12:05:08.328Z,20.50
2017-10-18T12:07:37.658Z,22.10
2017-10-18T12:10:05.784Z,21.90
2017-10-18T12:12:35.921Z,21.60
2017-10-18T12:15:04.837Z,22.60
2017-10-18T12:17:32.972Z,20.57
2017-10-18T12:20:01.120Z,21.07
2017-10-18T12:22:29.244Z,21.47
2017-10-18T12:24:58.150Z,19.87
2017-10-18T12:27:26.261Z,21.10
2017-10-18T12:29:54.437Z,21.37
2017-10-18T12:32:23.317Z,21.10
2017-10-18T12:34:51.462Z,22.93
2017-10-18T12:37:19.582Z,22.10
2017-10-18T12:39:47.771Z,20.50
2017-10-18T12:42:16.656Z,21.40
2017-10-18T12:44:45.859Z,20.03
2017-10-18T12:47:13.988Z,21.20
2017-10-18T12:49:42.153Z,19.93
2017-10-18T12:52:10.267Z,21.93
2017-10-18T12:54:38.402Z,22.50
2017-10-18T12:57:08.942Z,20.93
2017-10-18T12:59:37.464Z,20.20
2017-10-18T13:02:06.353Z,21.03
2017-10-18T13:04:34.498Z,21.07
2017-10-18T13:07:02.629Z,20.00
2017-10-18T13:09:30.774Z,19.43
2017-10-18T13:11:58.896Z,19.43
2017-10-18T13:14:27.033Z,20.10
2017-10-18T13:16:55.925Z,19.03
2017-10-18T13:19:24.820Z,16.77
2017-10-18T13:21:53.703Z,17.63
2017-10-18T13:24:22.613Z,18.43
2017-10-18T13:26:50.738Z,17.53
2017-10-18T13:29:19.660Z,17.50
2017-10-18T13:31:49.250Z,16.93
2017-10-18T13:34:17.370Z,16.70
2017-10-18T13:36:45.511Z,18.00
2017-10-18T13:39:16.990Z,17.20
2017-10-18T13:41:47.447Z,18.10
2017-10-18T13:44:16.641Z,16.10
2017-10-18T13:46:44.786Z,15.63
2017-10-18T13:49:12.901Z,14.27
2017-10-18T13:51:41.037Z,14.00
2017-10-18T13:54:09.167Z,12.90
2017-10-18T13:56:38.456Z,12.73
2017-10-18T13:59:06.570Z,15.10
2017-10-18T14:01:35.472Z,12.93
2017-10-18T14:04:03.620Z,12.70
2017-10-18T14:06:31.757Z,13.03
2017-10-18T14:08:59.861Z,12.20
2017-10-18T14:11:28.018Z,11.97
2017-10-18T14:13:56.136Z,15.10
2017-10-18T14:16:24.273Z,13.70
2017-10-18T14:18:52.402Z,14.70
2017-10-18T14:21:22.586Z,15.63
2017-10-18T14:23:51.472Z,14.50
2017-10-18T14:26:20.386Z,14.47
2017-10-18T14:28:49.626Z,15.23
2017-10-18T14:31:17.776Z,15.20
2017-10-18T14:33:46.298Z,15.67
2017-10-18T14:36:14.428Z,13.83
2017-10-18T14:38:42.540Z,13.23
2017-10-18T14:41:10.672Z,13.70
2017-10-18T14:43:38.789Z,14.27
2017-10-18T14:46:06.935Z,12.87
2017-10-18T14:48:35.049Z,13.10
2017-10-18T14:51:03.247Z,13.60
2017-10-18T14:53:31.380Z,13.00
2017-10-18T14:55:59.524Z,13.50
2017-10-18T14:58:27.648Z,14.23
2017-10-18T15:00:57.262Z,13.50
2017-10-18T15:03:26.133Z,15.33
2017-10-18T15:05:54.735Z,13.67
2017-10-18T15:08:26.361Z,12.33
2017-10-18T15:10:54.506Z,12.23
2017-10-18T15:13:23.104Z,11.73
2017-10-18T15:15:51.252Z,14.00
2017-10-18T15:18:19.825Z,12.67
2017-10-18T15:20:48.642Z,12.83
2017-10-18T15:23:16.767Z,12.03
2017-10-18T15:25:48.168Z,10.87
2017-10-18T15:28:16.288Z,11.80
2017-10-18T15:30:44.828Z,11.73
2017-10-18T15:33:12.966Z,13.40
2017-10-18T15:35:41.116Z,12.00
2017-10-18T15:38:10.827Z,11.07
2017-10-18T15:40:39.720Z,11.80
2017-10-18T15:43:08.657Z,12.17
2017-10-18T15:45:39.568Z,14.67
2017-10-18T15:48:07.689Z,12.83
2017-10-18T15:50:35.837Z,12.70
2017-10-18T15:53:03.955Z,12.43
2017-10-18T15:55:33.385Z,11.70
2017-10-18T15:58:03.146Z,11.90
2017-10-18T16:00:31.266Z,12.53
2017-10-18T16:03:00.175Z,11.23
2017-10-18T16:05:28.326Z,12.00
2017-10-18T16:07:57.229Z,10.80
2017-10-18T16:13:09.639Z,11.40
2017-10-18T16:15:38.507Z,11.20
2017-10-18T16:18:08.562Z,11.30
2017-10-18T16:20:36.673Z,11.50
2017-10-18T16:23:04.811Z,11.40
2017-10-18T16:25:32.936Z,11.13
2017-10-18T16:28:01.086Z,11.83
2017-10-18T16:30:30.441Z,12.60
2017-10-18T16:32:59.344Z,12.40
2017-10-18T16:35:31.566Z,12.40
2017-10-18T16:38:01.080Z,11.17
2017-10-18T16:40:29.994Z,11.97
2017-10-18T16:42:58.783Z,12.47
2017-10-18T16:45:28.477Z,11.57
2017-10-18T16:47:57.076Z,12.57
2017-10-18T16:50:25.953Z,11.17
2017-10-18T16:52:54.549Z,11.03
2017-10-18T16:55:24.780Z,11.33
2017-10-18T16:57:56.989Z,11.50
2017-10-18T17:00:28.377Z,10.57
2017-10-18T17:02:56.948Z,12.67
2017-10-18T17:05:25.070Z,10.83
2017-10-18T17:07:54.846Z,11.27
2017-10-18T17:10:22.951Z,13.17
2017-10-18T17:12:54.067Z,11.50
2017-10-18T17:15:22.176Z,11.50
2017-10-18T17:17:50.318Z,12.13
2017-10-18T17:20:19.233Z,14.60
2017-10-18T17:22:47.904Z,13.37
2017-10-18T17:25:16.811Z,12.57
2017-10-18T17:27:46.524Z,11.10
2017-10-18T17:30:14.671Z,12.03
2017-10-18T17:32:43.548Z,11.80
2017-10-18T17:35:11.691Z,11.73
2017-10-18T17:37:39.807Z,12.60
2017-10-18T17:40:08.713Z,12.03
2017-10-18T17:42:36.846Z,12.17
2017-10-18T17:45:04.983Z,12.47
2017-10-18T17:47:33.095Z,12.07
2017-10-18T17:50:02.500Z,12.13
2017-10-18T17:52:30.629Z,12.87
2017-10-18T17:54:59.730Z,11.90
2017-10-18T17:57:43.916Z,11.93
2017-10-18T18:00:13.538Z,13.50
2017-10-18T18:02:41.661Z,12.70
2017-10-18T18:05:10.809Z,12.60
2017-10-18T18:07:39.418Z,12.80
2017-10-18T18:10:07.566Z,11.60
2017-10-18T18:12:35.688Z,12.47
2017-10-18T18:15:03.844Z,13.03
2017-10-18T18:17:31.956Z,15.20
2017-10-18T18:20:00.099Z,14.57
2017-10-18T18:22:28.215Z,15.03
2017-10-18T18:24:56.346Z,13.90
2017-10-18T18:27:24.502Z,13.60
2017-10-18T18:29:53.429Z,13.60
2017-10-18T18:32:21.558Z,13.60
2017-10-18T18:34:50.580Z,14.00
2017-10-18T18:37:20.568Z,13.70
2017-10-18T18:39:49.664Z,14.17
2017-10-18T18:42:19.478Z,13.07
2017-10-18T18:44:49.708Z,13.20
2017-10-18T18:47:20.793Z,14.20
2017-10-18T18:49:49.111Z,13.33
2017-10-18T18:52:17.993Z,14.87
2017-10-18T18:54:46.114Z,15.20
2017-10-18T18:57:15.128Z,16.90
2017-10-18T18:59:43.643Z,15.30
2017-10-18T19:02:13.965Z,12.90
2017-10-18T19:04:43.382Z,12.17
2017-10-18T19:07:12.306Z,12.43
2017-10-18T19:09:44.203Z,12.20
2017-10-18T19:12:12.347Z,13.13
2017-10-18T19:14:40.464Z,12.67
2017-10-18T19:17:09.603Z,12.63
2017-10-18T19:19:37.825Z,12.30
2017-10-18T19:22:05.974Z,13.40
2017-10-18T19:24:34.860Z,12.50
2017-10-18T19:27:04.162Z,15.47
2017-10-18T19:29:32.841Z,15.20
2017-10-18T19:32:00.976Z,13.77
2017-10-18T19:34:30.277Z,14.17
2017-10-18T19:36:59.175Z,13.97
2017-10-18T19:39:28.056Z,13.00
2017-10-18T19:41:56.749Z,13.33
2017-10-18T19:44:25.438Z,13.30
2017-10-18T19:46:54.221Z,13.93
2017-10-18T19:49:23.097Z,13.10
2017-10-18T19:51:51.218Z,11.60
2017-10-18T19:54:20.275Z,11.73
2017-10-18T19:56:49.036Z,11.90
2017-10-18T19:59:18.298Z,12.10
2017-10-18T20:01:46.411Z,12.27
2017-10-18T20:04:14.556Z,12.90
2017-10-18T20:06:43.328Z,12.20
2017-10-18T20:09:11.661Z,10.73
2017-10-18T20:11:39.779Z,12.43
2017-10-18T20:14:07.923Z,12.00
2017-10-18T20:16:36.811Z,11.87
2017-10-18T20:19:05.275Z,13.03
2017-10-18T20:21:33.554Z,11.77
2017-10-18T20:24:01.782Z,13.00
2017-10-18T20:26:30.018Z,13.80
2017-10-18T20:28:59.073Z,13.33
2017-10-18T20:31:27.192Z,13.17
2017-10-18T20:33:56.113Z,16.67
2017-10-18T20:36:24.236Z,15.67
2017-10-18T20:38:52.458Z,16.83
2017-10-18T20:41:22.138Z,16.60
2017-10-18T20:43:51.778Z,15.07
2017-10-18T20:46:19.985Z,12.90
2017-10-18T20:48:48.365Z,13.63
2017-10-18T20:51:17.191Z,14.80
2017-10-18T20:53:46.453Z,16.03
2017-10-18T20:56:15.801Z,15.87
2017-10-18T20:58:44.478Z,15.17
2017-10-18T21:01:13.368Z,15.10
2017-10-18T21:03:42.254Z,16.53
2017-10-18T21:06:11.152Z,14.10
2017-10-18T21:08:40.500Z,16.23
2017-10-18T21:11:08.652Z,15.80
2017-10-18T21:13:36.795Z,16.63
2017-10-18T21:16:05.912Z,16.53
2017-10-18T21:18:34.022Z,18.50
2017-10-18T21:21:02.181Z,18.17
2017-10-18T21:23:30.298Z,17.77
2017-10-18T21:25:58.429Z,19.40
2017-10-18T21:28:26.555Z,24.37
2017-10-18T21:30:55.472Z,22.00
2017-10-18T21:33:24.034Z,21.93
2017-10-18T21:36:00.900Z,24.40
2017-10-18T21:38:29.074Z,23.03
2017-10-18T21:40:59.729Z,21.60
2017-10-18T21:43:30.737Z,20.50
2017-10-18T21:45:58.896Z,22.43
2017-10-18T21:48:27.008Z,24.30
2017-10-18T21:50:55.975Z,24.23
2017-10-18T21:53:24.103Z,21.27
2017-10-18T21:55:52.278Z,22.57
2017-10-18T21:58:20.440Z,20.00
2017-10-18T22:00:48.601Z,23.17
2017-10-18T22:03:17.484Z,21.73
2017-10-18T22:05:47.963Z,17.60
2017-10-18T22:08:17.657Z,18.93
2017-10-18T22:10:46.207Z,19.40
2017-10-18T22:13:15.126Z,19.33
2017-10-18T22:15:43.269Z,17.77
2017-10-18T22:18:11.392Z,18.97
2017-10-18T22:20:39.540Z,16.90
2017-10-18T22:23:08.450Z,17.20
2017-10-18T22:25:36.563Z,19.60
2017-10-18T22:28:04.721Z,18.77
2017-10-18T22:30:33.553Z,21.60
2017-10-18T22:33:02.459Z,18.70
2017-10-18T22:35:30.601Z,18.07
2017-10-18T22:37:58.758Z,19.13
2017-10-18T22:40:28.399Z,19.03
2017-10-18T22:42:57.311Z,19.77
2017-10-18T22:45:26.179Z,19.17
2017-10-18T22:47:55.580Z,16.63
2017-10-18T22:50:24.477Z,16.10
2017-10-18T22:52:53.399Z,14.17
2017-10-18T22:55:21.522Z,14.90
2017-10-18T22:57:49.656Z,14.67
2017-10-18T23:00:18.212Z,14.47
2017-10-18T23:02:46.365Z,14.70
2017-10-18T23:05:15.669Z,14.40
2017-10-18T23:07:45.796Z,13.47
2017-10-18T23:10:14.677Z,14.00
2017-10-18T23:12:44.177Z,14.07
2017-10-18T23:15:12.295Z,14.80
2017-10-18T23:17:40.449Z,15.50
2017-10-18T23:20:08.558Z,14.20
2017-10-18T23:22:36.691Z,14.27
2017-10-18T23:25:04.815Z,14.53
2017-10-18T23:27:32.954Z,15.10
2017-10-18T23:30:01.083Z,14.07
2017-10-18T23:32:29.206Z,16.50
2017-10-18T23:34:57.357Z,14.27
2017-10-18T23:37:25.469Z,15.00
2017-10-18T23:39:53.599Z,15.27
2017-10-18T23:42:21.717Z,12.83
2017-10-18T23:44:49.851Z,13.57
2017-10-18T23:47:17.968Z,12.33
2017-10-18T23:49:48.045Z,13.07
2017-10-18T23:52:16.161Z,14.47
2017-10-18T23:54:44.310Z,13.93
2017-10-18T23:57:12.441Z,12.77
2017-10-18T23:59:41.347Z,12.60
